Thunderstorms From: 23-10-2017 15:00 Until: 24-10-2017 20:00 warning for: Thunderstorms Level: Yellow info button
 
Rain From: 23-10-2017 18:00 Until: 24-10-2017 20:00 warning for: Rain Level: Yellow info button
 

This is an optional block. Switch it on/off in your settings-file: $SITE['bannerTop'] = false; or $SITE['bannerBottom'] = false;

You can display ads, any other important text or photo’s using text / html or PHP code.

You can place one or more at the top and or bottom and it can all be different for content / size .



My webcam more information My webcam


warning for Thunderstorms more information blitzortung!


warning for Rain more information rain snow radar


Visit our other weather sites:

Template documentation
and downloads

And another site



Nearby METAR Reports

   
LGTS - Thessaloniki
Updated: 23-10-2017 17:50
Light Rain, Mostly Cloudy  
Light Rain, Mostly Cloudy  
   Wind: SE 11.1 km/h
Wind: SE 11.1 km/h
Temperature: 18°C
Dew Point: 14°C
Humidity: 78%
Barometer: 1002 hPa
Clouds: Mostly Cloudy
Visibility: 8 km
Cloud details: Few Clouds 1000 ft,
Few Clouds 1800 ft,
Mostly Cloudy 2500 ft
LGTS 231450Z 13006KT 8000 -RA FEW010 FEW018TCU BKN025 18/14 Q1002 NOSIG
LGRX - Patra
Updated: 23-10-2017 17:50
Mostly Cloudy  
Mostly Cloudy  
   Wind: Calm
Wind: Calm
Temperature: 20°C
Dew Point: 17°C
Humidity: 83%
Barometer: 1005 hPa
Clouds: Mostly Cloudy
Visibility: More than 10 km
Cloud details: Partly Cloudy 2500 ft,
Mostly Cloudy 8000 ft
LGRX 231450Z 00000KT 9999 SCT025 BKN080 20/17 Q1005
EBCV - Mons/Bergen
Updated: 23-10-2017 17:55
Overcast  
Overcast  
   Wind: SSW 13 km/h
Wind: SSW 13 km/h
Temperature: 12°C
Dew Point: 12°C
Humidity: 100%
Barometer: 1021 hPa
Clouds: Overcast
Visibility: 5 km
Cloud details: Overcast 700 ft
EBCV 231455Z AUTO 21007KT 5000 OVC007/// 12/12 Q1021 GRN
EHBK - Maastricht
Updated: 23-10-2017 17:55
Overcast  
Overcast  
   Wind: SW 16.7 km/h
Wind: SW 16.7 km/h
Temperature: 13°C
Dew Point: 10°C
Humidity: 82%
Barometer: 1020 hPa
Clouds: Overcast
Visibility: More than 10 km
Cloud details: Mostly Cloudy 1700 ft,
Overcast 2000 ft
EHBK 231455Z AUTO 23009KT 210V270 9999 BKN017 OVC020 13/10 Q1020 NOSIG
ELLX - Luxemburg
Updated: 23-10-2017 17:50
Light Drizzle, Mist, Mostly Cloudy  
Light Drizzle, Mist, Mostly Cloudy  
   Wind: WSW 14.8 km/h
Wind: WSW 14.8 km/h
Temperature: 10°C
Wind Chill: 8°C
Dew Point: 9°C
Humidity: 94%
Barometer: 1022 hPa
Clouds: Mostly Cloudy
Visibility: 4 km
Cloud details: Partly Cloudy 300 ft,
Mostly Cloudy 600 ft
ELLX 231450Z 25008KT 4000 -DZ BR SCT003 BKN006 10/09 Q1022 NOSIG
EBOS - Oostende
Updated: 23-10-2017 17:50
Light Drizzle, Rain, Mostly Cloudy  
Light Drizzle, Rain, Mostly Cloudy  
   Wind: South 13 km/h
Wind: South 13 km/h
Temperature: 13°C
Dew Point: 12°C
Humidity: 94%
Barometer: 1019 hPa
Clouds: Mostly Cloudy
Visibility: 3 km
Cloud details: Partly Cloudy 300 ft,
Mostly Cloudy 600 ft
EBOS 231450Z 19007KT 3200 -DZRA SCT003 BKN006 13/12 Q1019 TEMPO 2500 DZRA BKN004

Script developed by  Saratoga-weather.org Adapted for the template by  Weerstation Leuven

Equipment we use:

Weather-station
La crosse ws 2350

Weather-program
Weather Display

Weather-server
My Computer

Provider
Cosmote

La crosse ws 2350

Weather Display

My Computer

Cosmote


This is an optional block. Switch it on/off in your settings-file: $SITE['bannerTop'] = false; or $SITE['bannerBottom'] = false;

You can display ads, any other important text or photo’s using text / html or PHP code.

You can place one or more at the top and or bottom and it can all be different for content / size .